createdAt,value
2018-05-03T00:02:38.028Z,96.10
2018-05-03T00:05:06.177Z,96.10
2018-05-03T00:07:34.946Z,95.80
2018-05-03T00:10:04.337Z,95.70
2018-05-03T00:12:40.777Z,95.60
2018-05-03T00:15:12.796Z,95.50
2018-05-03T00:17:42.574Z,95.50
2018-05-03T00:20:15.142Z,95.50
2018-05-03T00:22:45.668Z,95.30
2018-05-03T00:25:16.286Z,95.20
2018-05-03T00:27:44.067Z,95.30
2018-05-03T00:30:12.865Z,95.40
2018-05-03T00:32:53.470Z,95.50
2018-05-03T00:35:21.317Z,95.60
2018-05-03T00:37:49.874Z,95.60
2018-05-03T00:40:17.669Z,95.70
2018-05-03T00:42:49.335Z,95.80
2018-05-03T00:47:52.625Z,95.80
2018-05-03T00:50:21.325Z,95.70
2018-05-03T00:52:49.015Z,95.80
2018-05-03T00:55:21.645Z,95.70
2018-05-03T00:57:49.431Z,95.70
2018-05-03T01:00:17.182Z,95.90
2018-05-03T01:02:48.938Z,96.10
2018-05-03T01:05:16.688Z,96.10
2018-05-03T01:07:44.392Z,96.10
2018-05-03T01:10:12.225Z,96.20
2018-05-03T01:12:40.014Z,96.30
2018-05-03T01:15:07.764Z,96.40
2018-05-03T01:17:38.255Z,96.40
2018-05-03T01:20:05.977Z,96.40
2018-05-03T01:22:33.683Z,96.40
2018-05-03T01:25:02.236Z,96.40
2018-05-03T01:27:29.976Z,96.40
2018-05-03T01:29:57.641Z,96.30
2018-05-03T01:32:25.451Z,96.30
2018-05-03T01:35:04.845Z,96.70
2018-05-03T01:37:33.501Z,97.20
2018-05-03T01:40:01.236Z,97.40
2018-05-03T01:42:28.935Z,97.60
2018-05-03T01:44:56.697Z,97.80
2018-05-03T01:47:24.416Z,97.90
2018-05-03T01:49:52.156Z,98.10
2018-05-03T01:52:19.929Z,98.10
2018-05-03T01:54:47.603Z,98.20
2018-05-03T01:57:15.312Z,98.10
2018-05-03T01:59:43.058Z,98.10
2018-05-03T02:02:10.730Z,97.90
2018-05-03T02:04:38.416Z,97.70
2018-05-03T02:07:06.236Z,97.70
2018-05-03T02:09:33.909Z,97.80
2018-05-03T02:12:01.717Z,97.70
2018-05-03T02:14:29.435Z,97.70
2018-05-03T02:16:57.165Z,97.70
2018-05-03T02:19:24.919Z,97.60
2018-05-03T02:21:52.751Z,97.70
2018-05-03T02:24:20.387Z,97.70
2018-05-03T02:26:52.736Z,97.50
2018-05-03T02:29:21.247Z,97.20
2018-05-03T02:31:48.976Z,97.20
2018-05-03T02:34:16.698Z,97.20
2018-05-03T02:36:45.247Z,97.20
2018-05-03T02:39:13.746Z,97.10
2018-05-03T02:41:41.418Z,97.10
2018-05-03T02:44:09.114Z,97.00
2018-05-03T02:46:36.905Z,97.10
2018-05-03T02:49:04.629Z,96.80
2018-05-03T02:51:32.457Z,96.80
2018-05-03T02:54:00.171Z,96.80
2018-05-03T02:56:27.885Z,97.10
2018-05-03T02:59:07.260Z,97.20
2018-05-03T03:01:52.479Z,97.40
2018-05-03T03:04:37.766Z,97.50
2018-05-03T03:10:42.519Z,97.30
2018-05-03T03:13:31.629Z,97.30
2018-05-03T03:16:16.849Z,97.30
2018-05-03T03:19:02.078Z,97.60
2018-05-03T03:21:47.316Z,97.50
2018-05-03T03:24:32.636Z,97.50
2018-05-03T03:30:35.255Z,96.90
2018-05-03T03:33:14.780Z,97.30
2018-05-03T03:36:03.022Z,97.10
2018-05-03T03:38:42.618Z,97.20
2018-05-03T03:41:24.388Z,97.60
2018-05-03T03:44:05.760Z,97.80
2018-05-03T03:46:40.559Z,97.90
2018-05-03T03:49:08.297Z,97.90
2018-05-03T03:51:36.001Z,97.90
2018-05-03T03:54:04.474Z,98.00
2018-05-03T03:56:32.236Z,98.00
2018-05-03T03:58:59.923Z,98.10
2018-05-03T04:01:41.007Z,97.90
2018-05-03T04:04:08.668Z,97.80
2018-05-03T04:06:36.458Z,98.00
2018-05-03T04:09:04.286Z,98.10
2018-05-03T04:11:32.019Z,98.20
2018-05-03T04:13:59.807Z,98.30
2018-05-03T04:16:27.499Z,97.90
2018-05-03T04:19:07.098Z,96.90
2018-05-03T04:21:46.623Z,95.90
2018-05-03T04:24:26.239Z,94.20
2018-05-03T04:26:53.940Z,92.90
2018-05-03T04:29:21.648Z,91.50
2018-05-03T04:31:50.399Z,91.00
2018-05-03T04:34:18.107Z,91.20
2018-05-03T04:36:45.887Z,90.90
2018-05-03T04:39:13.671Z,90.40
2018-05-03T04:41:41.404Z,90.10
2018-05-03T04:44:09.119Z,88.60
2018-05-03T04:46:36.970Z,85.10
2018-05-03T04:49:04.629Z,84.10
2018-05-03T04:51:32.281Z,84.20
2018-05-03T04:54:00.097Z,83.50
2018-05-03T04:56:27.739Z,82.80
2018-05-03T04:58:55.418Z,80.30
2018-05-03T05:01:23.820Z,78.30
2018-05-03T05:03:51.465Z,76.30
2018-05-03T05:06:19.192Z,73.50
2018-05-03T05:08:46.962Z,73.60
2018-05-03T05:11:14.693Z,72.20
2018-05-03T05:13:42.352Z,70.60
2018-05-03T05:16:10.142Z,69.60
2018-05-03T05:18:37.834Z,68.00
2018-05-03T05:21:05.519Z,68.40
2018-05-03T05:23:33.321Z,69.50
2018-05-03T05:26:00.993Z,72.60
2018-05-03T05:28:29.477Z,76.40
2018-05-03T05:30:57.248Z,74.40
2018-05-03T05:33:24.888Z,73.50
2018-05-03T05:35:52.538Z,73.00
2018-05-03T05:38:21.286Z,72.30
2018-05-03T05:40:48.943Z,69.70
2018-05-03T05:43:16.589Z,68.80
2018-05-03T05:45:47.166Z,69.00
2018-05-03T05:48:14.853Z,69.80
2018-05-03T05:50:50.147Z,69.90
2018-05-03T05:53:17.859Z,70.00
2018-05-03T05:55:47.377Z,69.80
2018-05-03T05:58:15.144Z,69.10
2018-05-03T06:00:42.840Z,70.00
2018-05-03T06:03:10.535Z,72.40
2018-05-03T06:05:38.296Z,74.80
2018-05-03T06:08:18.622Z,72.50
2018-05-03T06:10:46.386Z,72.80
2018-05-03T06:13:14.034Z,72.70
2018-05-03T06:15:41.738Z,71.60
2018-05-03T06:18:09.657Z,72.50
2018-05-03T06:20:37.656Z,72.00
2018-05-03T06:23:05.597Z,71.60
2018-05-03T06:25:33.596Z,71.50
2018-05-03T06:28:01.444Z,70.40
2018-05-03T06:30:29.976Z,70.80
2018-05-03T06:32:58.397Z,70.20
2018-05-03T06:35:26.236Z,71.20
2018-05-03T06:37:54.337Z,71.90
2018-05-03T06:40:22.276Z,68.40
2018-05-03T06:42:50.257Z,68.50
2018-05-03T06:45:18.267Z,70.20
2018-05-03T06:47:46.416Z,70.50
2018-05-03T06:50:14.615Z,69.20
2018-05-03T06:52:42.536Z,68.20
2018-05-03T06:55:10.516Z,67.90
2018-05-03T06:57:38.457Z,68.20
2018-05-03T07:00:06.217Z,67.30
2018-05-03T07:02:34.783Z,67.30
2018-05-03T07:05:02.664Z,69.10
2018-05-03T07:07:31.059Z,67.90
2018-05-03T07:09:59.008Z,67.00
2018-05-03T07:12:27.087Z,65.30
2018-05-03T07:14:55.779Z,67.10
2018-05-03T07:17:24.139Z,66.90
2018-05-03T07:19:52.180Z,65.90
2018-05-03T07:22:20.022Z,66.40
2018-05-03T07:24:48.139Z,66.40
2018-05-03T07:27:16.319Z,66.20
2018-05-03T07:29:44.499Z,67.50
2018-05-03T07:32:12.479Z,67.20
2018-05-03T07:34:40.339Z,67.60
2018-05-03T07:37:08.579Z,66.00
2018-05-03T07:39:36.562Z,67.70
2018-05-03T07:42:04.421Z,65.50
2018-05-03T07:44:32.584Z,64.20
2018-05-03T07:47:00.697Z,64.50
2018-05-03T07:49:28.576Z,64.50
2018-05-03T07:51:56.376Z,62.50
2018-05-03T07:54:25.200Z,62.30
2018-05-03T07:56:53.016Z,61.10
2018-05-03T07:59:21.822Z,62.40
2018-05-03T08:01:49.999Z,62.30
2018-05-03T08:04:17.926Z,61.30
2018-05-03T08:06:45.839Z,57.80
2018-05-03T08:09:14.359Z,60.70
2018-05-03T08:11:42.227Z,61.10
2018-05-03T08:14:10.980Z,63.40
2018-05-03T08:19:11.218Z,63.00
2018-05-03T08:21:39.418Z,62.20
2018-05-03T08:24:07.358Z,61.30
2018-05-03T08:26:35.418Z,62.80
2018-05-03T08:29:03.365Z,59.10
2018-05-03T08:31:31.258Z,59.90
2018-05-03T08:33:59.240Z,57.90
2018-05-03T08:36:27.544Z,55.70
2018-05-03T08:38:55.381Z,53.60
2018-05-03T08:41:23.388Z,57.40
2018-05-03T08:44:00.128Z,55.80
2018-05-03T08:46:35.167Z,58.80
2018-05-03T08:49:11.488Z,57.50
2018-05-03T08:51:45.412Z,59.30
2018-05-03T08:54:19.967Z,52.60
2018-05-03T08:56:53.768Z,53.60
2018-05-03T08:59:30.061Z,55.80
2018-05-03T09:02:05.888Z,56.10
2018-05-03T09:04:41.728Z,57.10
2018-05-03T09:07:17.581Z,56.30
2018-05-03T09:09:52.448Z,57.20
2018-05-03T09:12:29.888Z,58.90
2018-05-03T09:15:03.813Z,56.70
2018-05-03T09:17:40.608Z,58.30
2018-05-03T09:20:15.336Z,57.40
2018-05-03T09:22:49.232Z,60.10
2018-05-03T09:25:24.927Z,58.70
2018-05-03T09:27:59.487Z,60.30
2018-05-03T09:30:34.851Z,60.50
2018-05-03T09:33:08.374Z,56.00
2018-05-03T09:35:36.477Z,59.80
2018-05-03T09:38:04.479Z,59.70
2018-05-03T09:40:32.682Z,53.30
2018-05-03T09:43:01.241Z,57.20
2018-05-03T09:45:29.182Z,57.30
2018-05-03T09:47:57.444Z,60.10
2018-05-03T09:50:25.543Z,59.10
2018-05-03T09:52:53.552Z,58.10
2018-05-03T09:55:22.723Z,54.10
2018-05-03T09:57:51.689Z,56.30
2018-05-03T10:00:19.433Z,59.20
2018-05-03T10:02:47.216Z,59.80
2018-05-03T10:05:15.416Z,59.70
2018-05-03T10:07:43.875Z,56.00
2018-05-03T10:10:11.736Z,59.90
2018-05-03T10:12:40.536Z,57.50
2018-05-03T10:15:08.956Z,58.50
2018-05-03T10:17:36.796Z,55.00
2018-05-03T10:20:04.576Z,52.00
2018-05-03T10:22:32.623Z,53.60
2018-05-03T10:25:00.476Z,52.40
2018-05-03T10:27:28.496Z,52.70
2018-05-03T10:29:56.381Z,51.80
2018-05-03T10:32:24.255Z,53.40
2018-05-03T10:34:53.015Z,56.10
2018-05-03T10:37:20.899Z,58.00
2018-05-03T10:39:48.797Z,52.70
2018-05-03T10:42:16.756Z,53.30
2018-05-03T10:44:45.017Z,53.70
2018-05-03T10:47:12.937Z,53.80
2018-05-03T10:49:40.997Z,55.60
2018-05-03T10:52:08.879Z,53.30
2018-05-03T10:54:37.324Z,56.00
2018-05-03T10:57:05.477Z,51.90
2018-05-03T10:59:33.456Z,55.20
2018-05-03T11:02:01.363Z,53.10
2018-05-03T11:04:29.315Z,54.60
2018-05-03T11:06:58.495Z,57.50
2018-05-03T11:09:26.414Z,55.10
2018-05-03T11:11:54.477Z,55.80
2018-05-03T11:14:22.434Z,50.70
2018-05-03T11:16:50.856Z,52.10
2018-05-03T11:19:19.001Z,50.60
2018-05-03T11:21:47.737Z,50.70
2018-05-03T11:24:16.075Z,50.70
2018-05-03T11:26:44.794Z,52.40
2018-05-03T11:29:12.615Z,51.70
2018-05-03T11:31:40.515Z,54.00
2018-05-03T11:34:08.515Z,53.30
2018-05-03T11:36:36.539Z,53.90
2018-05-03T11:39:05.054Z,53.70
2018-05-03T11:41:34.221Z,49.50
2018-05-03T11:44:02.261Z,49.40
2018-05-03T11:46:30.121Z,50.50
2018-05-03T11:48:58.483Z,48.40
2018-05-03T11:51:26.422Z,49.60
2018-05-03T11:53:54.263Z,50.70
2018-05-03T11:56:23.061Z,53.70
2018-05-03T11:58:50.961Z,53.70
2018-05-03T12:01:18.801Z,52.70
2018-05-03T12:03:47.125Z,53.60
2018-05-03T12:06:14.930Z,56.30
2018-05-03T12:08:42.761Z,50.60
2018-05-03T12:11:10.720Z,50.20
2018-05-03T12:13:38.571Z,50.60
2018-05-03T12:16:06.417Z,50.90
2018-05-03T12:18:34.565Z,51.30
2018-05-03T12:21:03.556Z,53.50
2018-05-03T12:23:31.684Z,53.50
2018-05-03T12:26:00.017Z,55.20
2018-05-03T12:28:29.836Z,54.50
2018-05-03T12:30:58.676Z,54.50
2018-05-03T12:33:26.616Z,51.70
2018-05-03T12:35:55.536Z,54.00
2018-05-03T12:38:23.590Z,54.00
2018-05-03T12:40:52.516Z,52.10
2018-05-03T12:43:20.456Z,54.80
2018-05-03T12:45:49.076Z,54.10
2018-05-03T12:48:17.337Z,53.50
2018-05-03T12:50:45.319Z,53.10
2018-05-03T12:53:13.236Z,53.70
2018-05-03T12:55:41.336Z,54.80
2018-05-03T12:58:09.375Z,54.30
2018-05-03T13:00:38.026Z,52.00
2018-05-03T13:03:06.406Z,52.00
2018-05-03T13:05:34.426Z,53.20
2018-05-03T13:08:03.434Z,54.00
2018-05-03T13:10:31.588Z,55.90
2018-05-03T13:12:59.687Z,55.60
2018-05-03T13:15:29.307Z,54.70
2018-05-03T13:17:57.347Z,53.50
2018-05-03T13:20:26.136Z,54.20
2018-05-03T13:22:54.087Z,54.20
2018-05-03T13:25:22.527Z,53.50
2018-05-03T13:27:50.467Z,54.40
2018-05-03T13:30:18.519Z,52.80
2018-05-03T13:32:46.536Z,52.60
2018-05-03T13:35:14.499Z,52.90
2018-05-03T13:37:43.641Z,49.20
2018-05-03T13:40:12.320Z,49.00
2018-05-03T13:42:41.147Z,49.30
2018-05-03T13:45:09.020Z,52.10
2018-05-03T13:47:37.132Z,53.70
2018-05-03T13:50:05.965Z,54.40
2018-05-03T13:52:34.441Z,53.90
2018-05-03T13:55:02.299Z,54.70
2018-05-03T13:57:30.260Z,55.90
2018-05-03T13:59:58.199Z,55.00
2018-05-03T14:02:26.495Z,56.70
2018-05-03T14:04:54.355Z,56.20
2018-05-03T14:07:22.624Z,56.50
2018-05-03T14:09:50.556Z,56.30
2018-05-03T14:12:18.480Z,56.40
2018-05-03T14:14:46.339Z,57.40
2018-05-03T14:17:14.322Z,56.50
2018-05-03T14:19:42.499Z,56.30
2018-05-03T14:22:10.838Z,57.00
2018-05-03T14:24:40.219Z,56.00
2018-05-03T14:27:08.058Z,56.00
2018-05-03T14:29:36.136Z,53.80
2018-05-03T14:32:04.135Z,55.40
2018-05-03T14:34:32.098Z,55.10
2018-05-03T14:36:59.934Z,55.20
2018-05-03T14:39:28.195Z,55.00
2018-05-03T14:44:28.195Z,55.10
2018-05-03T14:46:56.175Z,55.40
2018-05-03T14:49:24.394Z,55.40
2018-05-03T14:51:52.276Z,55.50
2018-05-03T14:54:20.336Z,55.20
2018-05-03T14:56:48.255Z,56.40
2018-05-03T14:59:16.236Z,55.60
2018-05-03T15:01:44.275Z,54.90
2018-05-03T15:04:12.375Z,56.20
2018-05-03T15:06:40.447Z,55.80
2018-05-03T15:09:08.815Z,55.50
2018-05-03T15:11:36.815Z,55.30
2018-05-03T15:14:05.375Z,53.70
2018-05-03T15:16:33.466Z,54.60
2018-05-03T15:19:01.596Z,55.70
2018-05-03T15:21:29.634Z,55.80
2018-05-03T15:23:57.674Z,56.60
2018-05-03T15:26:25.535Z,57.80
2018-05-03T15:28:53.374Z,55.30
2018-05-03T15:31:22.176Z,55.10
2018-05-03T15:33:50.371Z,55.60
2018-05-03T15:36:18.318Z,55.20
2018-05-03T15:38:46.296Z,54.70
2018-05-03T15:41:14.556Z,54.30
2018-05-03T15:43:43.758Z,54.70
2018-05-03T15:46:12.694Z,55.80
2018-05-03T15:48:40.703Z,55.80
2018-05-03T15:51:09.015Z,56.50
2018-05-03T15:53:36.894Z,56.20
2018-05-03T15:56:06.854Z,56.30
2018-05-03T15:58:34.934Z,56.60
2018-05-03T16:01:02.935Z,56.80
2018-05-03T16:03:31.095Z,56.70
2018-05-03T16:05:59.035Z,58.10
2018-05-03T16:10:59.020Z,57.50
2018-05-03T16:13:26.877Z,58.40
2018-05-03T16:15:55.637Z,58.10
2018-05-03T16:18:23.537Z,58.20
2018-05-03T16:20:51.383Z,58.60
2018-05-03T16:23:19.362Z,58.70
2018-05-03T16:25:47.297Z,58.40
2018-05-03T16:28:15.437Z,58.90
2018-05-03T16:30:43.441Z,59.10
2018-05-03T16:33:11.577Z,59.00
2018-05-03T16:35:39.494Z,58.70
2018-05-03T16:38:07.574Z,59.10
2018-05-03T16:40:35.497Z,57.80
2018-05-03T16:43:03.337Z,58.50
2018-05-03T16:45:31.397Z,58.70
2018-05-03T16:47:59.817Z,58.00
2018-05-03T16:50:27.697Z,57.40
2018-05-03T16:52:55.979Z,58.00
2018-05-03T16:55:25.688Z,58.10
2018-05-03T16:57:53.616Z,58.40
2018-05-03T17:00:21.410Z,59.00
2018-05-03T17:02:49.515Z,58.80
2018-05-03T17:05:17.395Z,59.80
2018-05-03T17:07:45.417Z,59.20
2018-05-03T17:10:13.757Z,59.60
2018-05-03T17:12:41.817Z,59.50
2018-05-03T17:15:09.917Z,60.00
2018-05-03T17:17:38.478Z,60.30
2018-05-03T17:20:06.338Z,61.00
2018-05-03T17:22:34.457Z,61.10
2018-05-03T17:25:02.295Z,61.70
2018-05-03T17:27:30.257Z,61.50
2018-05-03T17:29:59.196Z,61.90
2018-05-03T17:32:27.118Z,62.30
2018-05-03T17:34:55.199Z,62.40
2018-05-03T17:37:24.699Z,62.20
2018-05-03T17:39:53.002Z,62.70
2018-05-03T17:42:20.766Z,62.70
2018-05-03T17:44:48.759Z,62.70
2018-05-03T17:47:16.759Z,63.20
2018-05-03T17:49:44.592Z,63.50
2018-05-03T17:52:12.459Z,64.00
2018-05-03T17:54:40.459Z,64.20
2018-05-03T17:57:08.420Z,64.80
2018-05-03T17:59:36.500Z,65.40
2018-05-03T18:02:04.418Z,65.20
2018-05-03T18:04:32.232Z,65.00
2018-05-03T18:07:00.020Z,65.50
2018-05-03T18:09:27.820Z,65.80
2018-05-03T18:11:56.441Z,66.20
2018-05-03T18:14:24.380Z,66.70
2018-05-03T18:16:52.240Z,67.40
2018-05-03T18:19:20.104Z,68.00
2018-05-03T18:21:48.180Z,68.50
2018-05-03T18:24:16.121Z,68.60
2018-05-03T18:29:16.940Z,69.50
2018-05-03T18:31:44.778Z,69.70
2018-05-03T18:34:12.692Z,69.80
2018-05-03T18:36:40.640Z,70.70
2018-05-03T18:39:08.510Z,71.20
2018-05-03T18:41:36.417Z,72.50
2018-05-03T18:44:05.934Z,73.00
2018-05-03T18:46:33.946Z,72.90
2018-05-03T18:49:01.996Z,72.80
2018-05-03T18:51:29.919Z,72.70
2018-05-03T18:53:57.838Z,69.20
2018-05-03T18:56:25.777Z,68.40
2018-05-03T18:58:53.789Z,68.90
2018-05-03T19:01:21.727Z,70.00
2018-05-03T19:03:50.065Z,68.80
2018-05-03T19:06:19.058Z,73.50
2018-05-03T19:08:46.934Z,74.80
2018-05-03T19:11:14.907Z,77.80
2018-05-03T19:13:44.020Z,77.20
2018-05-03T19:16:12.896Z,76.90
2018-05-03T19:18:40.526Z,76.20
2018-05-03T19:21:08.478Z,75.40
2018-05-03T19:23:36.418Z,74.70
2018-05-03T19:26:04.285Z,74.40
2018-05-03T19:28:32.539Z,74.60
2018-05-03T19:31:00.321Z,74.20
2018-05-03T19:33:28.262Z,74.00
2018-05-03T19:35:56.262Z,73.60
2018-05-03T19:38:24.420Z,73.40
2018-05-03T19:40:53.020Z,73.50
2018-05-03T19:43:22.671Z,73.50
2018-05-03T19:45:50.616Z,73.30
2018-05-03T19:48:18.566Z,72.60
2018-05-03T19:50:47.281Z,72.30
2018-05-03T19:53:15.076Z,72.30
2018-05-03T19:55:43.001Z,71.70
2018-05-03T19:58:11.141Z,71.60
2018-05-03T20:00:39.027Z,71.50
2018-05-03T20:03:07.111Z,71.20
2018-05-03T20:05:35.057Z,70.80
2018-05-03T20:08:03.598Z,69.70
2018-05-03T20:10:32.085Z,69.20
2018-05-03T20:13:00.758Z,68.80
2018-05-03T20:15:28.499Z,68.80
2018-05-03T20:17:56.144Z,68.50
2018-05-03T20:20:24.009Z,67.90
2018-05-03T20:22:52.131Z,67.30
2018-05-03T20:25:19.886Z,67.30
2018-05-03T20:27:47.759Z,67.40
2018-05-03T20:30:16.052Z,67.20
2018-05-03T20:32:43.846Z,67.10
2018-05-03T20:35:11.723Z,66.90
2018-05-03T20:37:39.472Z,66.60
2018-05-03T20:40:07.192Z,67.30
2018-05-03T20:42:35.002Z,67.30
2018-05-03T20:45:02.674Z,67.20
2018-05-03T20:47:30.398Z,67.00
2018-05-03T20:49:58.186Z,67.80
2018-05-03T20:52:25.888Z,66.90
2018-05-03T20:54:53.623Z,66.60
2018-05-03T20:57:21.472Z,66.00
2018-05-03T20:59:49.231Z,66.20
2018-05-03T21:02:16.937Z,66.00
2018-05-03T21:04:44.784Z,65.80
2018-05-03T21:07:12.547Z,66.10
2018-05-03T21:09:40.234Z,65.70
2018-05-03T21:12:08.025Z,65.60
2018-05-03T21:14:35.934Z,65.60
2018-05-03T21:17:03.897Z,65.20
2018-05-03T21:19:31.678Z,65.60
2018-05-03T21:21:59.975Z,65.60
2018-05-03T21:24:27.795Z,65.70
2018-05-03T21:26:55.775Z,65.10
2018-05-03T21:29:23.575Z,65.40
2018-05-03T21:31:51.394Z,65.40
2018-05-03T21:34:19.356Z,65.30
2018-05-03T21:36:47.275Z,65.30
2018-05-03T21:39:15.040Z,65.10
2018-05-03T21:41:42.889Z,65.20
2018-05-03T21:44:10.655Z,65.60
2018-05-03T21:46:38.377Z,65.60
2018-05-03T21:49:06.258Z,65.50
2018-05-03T21:51:33.956Z,65.40
2018-05-03T21:54:01.755Z,65.60
2018-05-03T21:56:29.655Z,65.60
2018-05-03T21:58:57.415Z,65.50
2018-05-03T22:01:25.180Z,65.80
2018-05-03T22:03:53.777Z,65.30
2018-05-03T22:06:21.739Z,65.20
2018-05-03T22:08:49.545Z,64.90
2018-05-03T22:11:17.409Z,65.10
2018-05-03T22:13:46.035Z,64.90
2018-05-03T22:16:13.762Z,64.90
2018-05-03T22:18:41.602Z,64.40
2018-05-03T22:21:10.171Z,64.10
2018-05-03T22:23:37.929Z,64.40
2018-05-03T22:26:05.843Z,64.20
2018-05-03T22:28:33.592Z,64.20
2018-05-03T22:31:01.304Z,64.30
2018-05-03T22:36:01.143Z,64.40
2018-05-03T22:38:29.762Z,64.90
2018-05-03T22:40:57.545Z,64.00
2018-05-03T22:43:25.304Z,64.00
2018-05-03T22:45:53.071Z,63.80
2018-05-03T22:48:20.872Z,63.70
2018-05-03T22:50:48.622Z,63.90
2018-05-03T22:53:16.386Z,63.20
2018-05-03T22:55:44.131Z,63.60
2018-05-03T23:00:43.903Z,63.30
2018-05-03T23:03:12.383Z,63.50
2018-05-03T23:05:40.162Z,63.50
2018-05-03T23:08:08.024Z,63.40
2018-05-03T23:10:35.783Z,63.30
2018-05-03T23:13:03.622Z,63.20
2018-05-03T23:15:31.522Z,63.50
2018-05-03T23:18:00.123Z,63.20
2018-05-03T23:20:27.923Z,63.20
2018-05-03T23:22:55.756Z,63.30
2018-05-03T23:25:23.562Z,63.20
2018-05-03T23:27:51.354Z,62.90
2018-05-03T23:30:19.185Z,62.60
2018-05-03T23:32:46.957Z,62.50
2018-05-03T23:35:14.797Z,62.80
2018-05-03T23:37:42.639Z,62.60
2018-05-03T23:40:10.357Z,62.40
2018-05-03T23:42:38.884Z,62.60
2018-05-03T23:45:06.677Z,62.60
2018-05-03T23:47:34.521Z,62.80
2018-05-03T23:50:02.563Z,62.50
2018-05-03T23:52:30.397Z,62.80
2018-05-03T23:54:58.237Z,62.90
2018-05-03T23:57:26.079Z,63.10
2018-05-03T23:59:54.177Z,63.30
